Reportages photos

Connexion

Poussins

POUSSINS FOULEES GUINOISES du 26/03/16 (Reelle 1,55) Scratch
Rang Dossard Nom Prénom Temps Cat Rang Cat Ecart Ecart Cat Club Vitesse Km/h Temps au Km
1 94 PEDRE THEO 00:05:58 POM 1 00:00:00 00:00:00 A C GOUSSAINVILLE 095016 15,587 03:51
2 88 LANGAGNE MAXIM 00:05:58 POM 2 00:00:00 00:00:00 ATHLETISME CLUB OUTREAU 15,587 03:51
3 146 LUCAS RAPHAELLE 00:06:01 BEF 1 00:00:03 00:00:00 LYS CALAIS TRIATHLON 15,457 03:53
4 62 LEGUAY MATHEO 00:06:25 POM 3 00:00:27 00:00:27 ASA FOOT AUDRUICQ 14,494 04:08
5 213 HUYGHE SYLVAIN 00:06:27 POM 4 00:00:29 00:00:29 14,419 04:10
6 81 NIELLEN THOMAS 00:06:31 POM 5 00:00:33 00:00:33 LYS CALAIS TRIATHLON 14,271 04:12
7 83 FOURCROY CONSTANT 00:06:32 POM 6 00:00:34 00:00:34 14,235 04:13
8 86 GILBERT TOM 00:06:35 POM 7 00:00:37 00:00:37 ATHLETISME CLUB OUTREAU 14,127 04:15
9 82 GILLODTS CLARA 00:06:41 POF 1 00:00:43 00:00:00 CACB 13,915 04:19
10 54 WADOUX ANTHONY 00:06:43 POM 8 00:00:45 00:00:45 ELAN 59 GRAVELINES ATHLETISME 13,846 04:20
11 214 COLIN NOE 00:06:48 POM 9 00:00:50 00:00:50 13,676 04:23
12 46 TRINQUET VALERE 00:06:49 POM 10 00:00:51 00:00:51 AS MARCK 13,643 04:24
13 175 AGEZ JAROD 00:06:51 POM 11 00:00:53 00:00:53 AS MARCK 13,577 04:25
14 50 DEWEZ YONI 00:06:58 POM 12 00:01:00 00:01:00 13,349 04:30
15 211 PRUVOT THEO 00:06:59 POM 13 00:01:01 00:01:01 13,317 04:30
16 55 LEVEUGLE ANDREAS 00:07:01 POF 2 00:01:03 00:00:20 BLANC NEZ TRIATHLON 13,254 04:32
17 34 COTE BAPTISTE 00:07:04 POM 14 00:01:06 00:01:06 13,160 04:34
18 76 RAITIERE  MATTHIAS  00:07:08 POM 15 00:01:10 00:01:10 PATRIOTE CROSS DE GUINES 13,037 04:36
19 66 HIDOT DELATTRE CHAD 00:07:11 POM 16 00:01:13 00:01:13 COT CALAIS SAINT OMER 12,947 04:38
20 69 BAILLET  DAN  00:07:13 POM 17 00:01:15 00:01:15 PATRIOTES CROSS DE GUINES 12,887 04:39
21 73 PRUVOT  VALENTIN  00:07:14 POM 18 00:01:16 00:01:16 PATRIOTE CROSS DE GUINES 12,857 04:40
22 38 GHEERARDYN-RENOU ARTHUR 00:07:14 POM 19 00:01:16 00:01:16 12,857 04:40
23 39 HANSCOTTE ALEXANDRE 00:07:16 POM 20 00:01:18 00:01:18 12,798 04:41
24 272 DUVENT LALIE 00:07:20 POF 3 00:01:22 00:00:39 12,682 04:44
25 93 MOKDAD LINA 00:07:21 POF 4 00:01:23 00:00:40 AC GOUSSAINVILLE 12,653 04:45
26 72 MAILLET  PAUL  00:07:21 POM 21 00:01:23 00:01:23 PATRIOTE CROSS DE GUINES 12,653 04:45
27 297 DETRES CANDICE 00:07:22 POF 5 00:01:24 00:00:41 12,624 04:45
28 87 HAVEZ JULIEN 00:07:25 POM 22 00:01:27 00:01:27 ATHLETISME CLUB OUTREAU 12,539 04:47
29 79 LEBON ARTHUR 00:07:26 POM 23 00:01:28 00:01:28 ATHLETIQUE CLUB CAPELLOIS 12,511 04:48
30 78 RENAUX  CHLOE  00:07:26 POF 6 00:01:28 00:00:45 PATRIOTE CROSS DE GUINES 12,511 04:48
31 49 ZANDEK NOE 00:07:27 POM 24 00:01:29 00:01:29 AS MARCK 12,483 04:48
32 71 HOCHART  ARTHUR  00:07:28 POM 25 00:01:30 00:01:30 PATRIOTE CROSS DE GUINES 12,455 04:49
33 74 BERNARD  BAPTISTE  00:07:29 POM 26 00:01:31 00:01:31 PATRIOTE CROSS DE GUINES 12,428 04:50
34 85 FERMON MARGAUX 00:07:29 POF 7 00:01:31 00:00:48 ATHLETISME CLUB OUTREAU 12,428 04:50
35 44 POIRE ERWAN 00:07:35 POM 27 00:01:37 00:01:37 12,264 04:54
36 45 SCHOONHEERE ARTHUR 00:07:39 POM 28 00:01:41 00:01:41 AS MARCK 12,157 04:56
37 212 BERTHE AUGUSTIN 00:07:39 POM 29 00:01:41 00:01:41 12,157 04:56
38 220 GENTILHOMME LILLI ROSE 00:07:40 POM 30 00:01:42 00:01:42 SOCALAIS 12,130 04:57
39 57 LAVIGNE VICTOIRE 00:07:40 POF 8 00:01:42 00:00:59 SOCALAIS 12,130 04:57
40 218 BLONDEAU TIMOTHE 00:07:41 POM 31 00:01:43 00:01:43 12,104 04:57
41 68 BOUVOT CLEMENT 00:07:43 POM 32 00:01:45 00:01:45 LE DRAPEAU 12,052 04:59
42 35 DETRES TOM 00:07:50 POM 33 00:01:52 00:01:52 11,872 05:03
43 70 BUTEZ  PIERRE  00:07:52 POM 34 00:01:54 00:01:54 PATRIOTE CROSS DE GUINES 11,822 05:05
44 217 HEMBERT CLEMENTINE 00:07:53 POF 9 00:01:55 00:01:12 11,797 05:05
45 91 BAYARD PAULINE 00:07:54 POF 10 00:01:56 00:01:13 COURIR DANS LE LUMBROIS 11,772 05:06
46 215 NORMAND AGATHE 00:07:54 POF 11 00:01:56 00:01:13 11,772 05:06
47 90 HERNAULT NATHAN 00:07:55 POM 35 00:01:57 00:01:57 11,747 05:06
48 300 WLODARCZYCK CELIA 00:08:00 POF 12 00:02:02 00:01:19 11,625 05:10
49 67 BEN ABDELHADI CHAINA 00:08:03 POF 13 00:02:05 00:01:22 LE DRAPEAU 11,553 05:12
50 51 GIVAUDAN NOHAN 00:08:09 POM 36 00:02:11 00:02:11 11,411 05:15
51 84 DRUJENT ILONA 00:08:10 POF 14 00:02:12 00:01:29 ATHLETISME CLUB OUTREAU 11,388 05:16
52 296 KRISSAANE ILHAM 00:08:12 POF 15 00:02:14 00:01:31 11,341 05:17
53 92 FOUCAUT MANON 00:08:23 POF 16 00:02:25 00:01:42 COURIR DANS LE LUMBROIS 11,093 05:25
54 292 TETU ZELIE 00:08:25 POF 17 00:02:27 00:01:44 11,050 05:26
55 299 BRAY ESTELLE 00:08:29 POF 18 00:02:31 00:01:48 10,963 05:28
56 298 WADOUX SOPHIE 00:08:34 POF 19 00:02:36 00:01:53 10,856 05:32
57 89 SAILLY LOUCAS 00:08:35 POM 37 00:02:37 00:02:37 ATHLETISME CLUB OUTREAU 10,835 05:32
58 176 BODEL CANDICE 00:08:42 POF 20 00:02:44 00:02:01 10,690 05:37
59 41 LEFEBVRE SHELTON 00:08:50 POM 38 00:02:52 00:02:52 10,528 05:42
60 43 POIRE CLEMENT 00:08:56 POM 39 00:02:58 00:02:58 10,410 05:46
61 65 AUBIN PAULINE 00:09:03 POF 21 00:03:05 00:02:22 10,276 05:50
62 291 VERCUCQUE CARLA-MARIE 00:09:04 POF 22 00:03:06 00:02:23 10,257 05:51
63 59 VALLIERE JULIETTE 00:09:10 POF 23 00:03:12 00:02:29 SOCALAIS 10,145 05:55
64 53 TRONET FLORIAN 00:09:41 POM 40 00:03:43 00:03:43 9,604 06:15
65 63 DENIS CYNAEL 00:09:44 POF 24 00:03:46 00:03:03 9,555 06:17
66 210 PECQUEUX ROMANE 00:09:55 POF 25 00:03:57 00:03:14 9,378 06:24
Novembre 2017
Lun Mar Mer Jeu Ven Sam Dim
1
2
3
4
5
6
7
8
9
10
11
12
13
14
15
16
17
18
19
20
21
22
23
24
25
27
28
29
30